createdAt,value
2018-02-22T00:01:54.969Z,0.40
2018-02-22T00:04:23.262Z,0.20
2018-02-22T00:06:51.569Z,0.10
2018-02-22T00:09:25.793Z,-0.10
2018-02-22T00:11:54.378Z,-0.20
2018-02-22T00:14:23.423Z,-0.70
2018-02-22T00:16:51.749Z,-0.80
2018-02-22T00:19:20.816Z,-0.70
2018-02-22T00:21:49.099Z,-0.70
2018-02-22T00:24:17.407Z,-0.70
2018-02-22T00:26:45.737Z,-1.00
2018-02-22T00:29:14.018Z,-0.80
2018-02-22T00:31:42.358Z,-1.60
2018-02-22T00:34:10.603Z,-0.50
2018-02-22T00:36:38.880Z,-0.70
2018-02-22T00:39:07.174Z,-0.70
2018-02-22T00:41:35.429Z,-0.90
2018-02-22T00:44:03.701Z,-0.90
2018-02-22T00:46:32.808Z,-0.80
2018-02-22T00:49:01.080Z,-0.80
2018-02-22T00:51:29.361Z,-1.00
2018-02-22T00:53:57.671Z,-1.00
2018-02-22T00:56:26.375Z,-1.30
2018-02-22T00:58:55.458Z,-1.50
2018-02-22T01:01:23.762Z,-1.60
2018-02-22T01:03:52.051Z,-1.20
2018-02-22T01:06:21.133Z,-1.00
2018-02-22T01:08:49.443Z,-1.00
2018-02-22T01:11:17.730Z,-0.70
2018-02-22T01:13:45.980Z,-0.40
2018-02-22T01:16:14.274Z,-0.10
2018-02-22T01:18:42.547Z,0.00
2018-02-22T01:21:10.835Z,0.50
2018-02-22T01:23:39.182Z,0.50
2018-02-22T01:26:07.450Z,0.70
2018-02-22T01:28:36.518Z,0.50
2018-02-22T01:31:04.865Z,0.50
2018-02-22T01:33:33.192Z,0.70
2018-02-22T01:36:01.505Z,0.80
2018-02-22T01:38:29.786Z,0.40
2018-02-22T01:40:58.035Z,0.80
2018-02-22T01:43:27.107Z,1.20
2018-02-22T01:45:56.249Z,1.00
2018-02-22T01:48:25.355Z,0.40
2018-02-22T01:50:53.638Z,0.40
2018-02-22T01:53:23.551Z,0.10
2018-02-22T01:55:51.806Z,0.50
2018-02-22T01:58:20.072Z,-0.10
2018-02-22T02:00:49.180Z,-1.30
2018-02-22T02:03:17.457Z,-1.30
2018-02-22T02:05:45.769Z,-1.80
2018-02-22T02:08:14.069Z,-1.90
2018-02-22T02:10:42.464Z,-2.10
2018-02-22T02:13:11.483Z,-1.70
2018-02-22T02:15:39.829Z,-1.70
2018-02-22T02:18:08.881Z,-1.40
2018-02-22T02:20:37.109Z,0.30
2018-02-22T02:23:06.183Z,-1.10
2018-02-22T02:25:35.244Z,-1.30
2018-02-22T02:28:08.308Z,-1.30
2018-02-22T02:30:36.787Z,-0.80
2018-02-22T02:33:05.092Z,-1.40
2018-02-22T02:35:33.389Z,-1.90
2018-02-22T02:38:01.654Z,-1.90
2018-02-22T02:40:29.959Z,-1.80
2018-02-22T02:42:59.094Z,-1.80
2018-02-22T02:45:27.393Z,-1.80
2018-02-22T02:47:55.716Z,-1.10
2018-02-22T02:50:24.803Z,-1.70
2018-02-22T02:52:53.839Z,-1.50
2018-02-22T02:55:22.100Z,-0.70
2018-02-22T02:57:50.408Z,-1.80
2018-02-22T03:00:18.694Z,-2.10
2018-02-22T03:02:46.968Z,-2.00
2018-02-22T03:05:15.274Z,-1.80
2018-02-22T03:07:44.328Z,-1.70
2018-02-22T03:10:12.620Z,-1.70
2018-02-22T03:12:40.942Z,-1.60
2018-02-22T03:15:09.951Z,-1.40
2018-02-22T03:17:38.198Z,-1.40
2018-02-22T03:20:07.263Z,-2.10
2018-02-22T03:22:35.523Z,-2.10
2018-02-22T03:25:03.787Z,-2.10
2018-02-22T03:27:32.127Z,-2.10
2018-02-22T03:30:01.147Z,-2.20
2018-02-22T03:32:29.448Z,-2.30
2018-02-22T03:34:57.782Z,-1.80
2018-02-22T03:37:26.028Z,-2.10
2018-02-22T03:39:54.300Z,-1.90
2018-02-22T03:42:22.627Z,-1.60
2018-02-22T03:44:50.908Z,-2.00
2018-02-22T03:47:19.204Z,-2.30
2018-02-22T03:49:47.503Z,-1.90
2018-02-22T03:52:15.831Z,-2.00
2018-02-22T03:54:44.437Z,-1.80
2018-02-22T03:57:12.714Z,-1.00
2018-02-22T03:59:40.973Z,-1.60
2018-02-22T04:02:09.272Z,-1.80
2018-02-22T04:04:37.590Z,-2.20
2018-02-22T04:07:06.621Z,-2.30
2018-02-22T04:09:34.901Z,-2.30
2018-02-22T04:12:04.496Z,-2.20
2018-02-22T04:14:32.819Z,-2.20
2018-02-22T04:17:01.079Z,-2.20
2018-02-22T04:19:29.362Z,-2.10
2018-02-22T04:21:57.628Z,-1.90
2018-02-22T04:24:25.899Z,-1.70
2018-02-22T04:26:54.199Z,-2.30
2018-02-22T04:29:22.475Z,-2.50
2018-02-22T04:31:50.765Z,-2.90
2018-02-22T04:34:19.863Z,-2.60
2018-02-22T04:36:48.895Z,-2.60
2018-02-22T04:39:17.173Z,-2.60
2018-02-22T04:41:45.454Z,-2.80
2018-02-22T04:44:13.729Z,-2.50
2018-02-22T04:46:42.028Z,-2.80
2018-02-22T04:49:10.343Z,-2.80
2018-02-22T04:51:38.603Z,-2.60
2018-02-22T04:54:06.869Z,-2.70
2018-02-22T04:56:35.158Z,-2.70
2018-02-22T04:59:04.187Z,-3.00
2018-02-22T05:01:32.489Z,-3.00
2018-02-22T05:04:00.815Z,-2.90
2018-02-22T05:06:29.850Z,-3.40
2018-02-22T05:08:58.127Z,-3.40
2018-02-22T05:11:26.475Z,-3.20
2018-02-22T05:13:55.585Z,-3.70
2018-02-22T05:16:23.843Z,-3.60
2018-02-22T05:18:52.182Z,-3.60
2018-02-22T05:21:20.464Z,-3.60
2018-02-22T05:23:48.707Z,-3.40
2018-02-22T05:26:17.019Z,-3.50
2018-02-22T05:28:45.292Z,-3.70
2018-02-22T05:31:13.609Z,-3.70
2018-02-22T05:33:41.926Z,-3.70
2018-02-22T05:36:10.229Z,-3.50
2018-02-22T05:38:38.525Z,-3.60
2018-02-22T05:41:07.632Z,-3.50
2018-02-22T05:43:35.909Z,-3.50
2018-02-22T05:46:04.196Z,-3.60
2018-02-22T05:48:32.523Z,-3.50
2018-02-22T05:51:00.785Z,-3.50
2018-02-22T05:53:29.090Z,-2.90
2018-02-22T05:55:57.422Z,-3.00
2018-02-22T05:58:26.504Z,-2.70
2018-02-22T06:00:54.830Z,-3.30
2018-02-22T06:03:23.125Z,-3.10
2018-02-22T06:05:52.150Z,-3.10
2018-02-22T06:08:20.398Z,-3.10
2018-02-22T06:10:49.436Z,-2.80
2018-02-22T06:13:17.707Z,-2.80
2018-02-22T06:15:45.979Z,-3.00
2018-02-22T06:18:14.269Z,-3.00
2018-02-22T06:20:42.502Z,-3.10
2018-02-22T06:23:10.765Z,-2.80
2018-02-22T06:25:39.807Z,-3.20
2018-02-22T06:28:08.070Z,-3.20
2018-02-22T06:30:36.362Z,-2.70
2018-02-22T06:33:04.697Z,-3.00
2018-02-22T06:35:32.976Z,-2.60
2018-02-22T06:38:01.500Z,-2.20
2018-02-22T06:40:29.832Z,-2.20
2018-02-22T06:42:58.091Z,-1.80
2018-02-22T06:45:27.102Z,-1.70
2018-02-22T06:47:55.456Z,-1.70
2018-02-22T06:50:24.500Z,-1.10
2018-02-22T06:52:52.774Z,-1.20
2018-02-22T06:55:21.927Z,-1.20
2018-02-22T06:57:50.924Z,-0.70
2018-02-22T07:00:19.974Z,-0.70
2018-02-22T07:02:48.318Z,-0.70
2018-02-22T07:05:16.650Z,-0.60
2018-02-22T07:07:44.920Z,-0.70
2018-02-22T07:10:13.233Z,-0.50
2018-02-22T07:12:41.519Z,-0.70
2018-02-22T07:15:09.781Z,-0.40
2018-02-22T07:17:38.889Z,-0.50
2018-02-22T07:20:07.141Z,-0.50
2018-02-22T07:22:36.157Z,-0.10
2018-02-22T07:25:04.451Z,-0.20
2018-02-22T07:27:32.700Z,-0.30
2018-02-22T07:30:01.730Z,0.20
2018-02-22T07:32:30.013Z,0.10
2018-02-22T07:34:58.324Z,0.00
2018-02-22T07:37:26.663Z,0.20
2018-02-22T07:39:54.924Z,0.10
2018-02-22T07:42:23.198Z,0.20
2018-02-22T07:44:51.482Z,-0.10
2018-02-22T07:47:19.720Z,0.00
2018-02-22T07:49:47.963Z,0.30
2018-02-22T07:52:16.303Z,0.30
2018-02-22T07:54:44.575Z,0.40
2018-02-22T07:57:12.877Z,0.20
2018-02-22T07:59:41.226Z,0.40
2018-02-22T08:02:09.690Z,1.00
2018-02-22T08:04:38.064Z,1.10
2018-02-22T08:07:06.548Z,1.10
2018-02-22T08:09:35.188Z,0.80
2018-02-22T08:12:04.535Z,3.60
2018-02-22T08:14:34.110Z,0.80
2018-02-22T08:17:03.106Z,0.90
2018-02-22T08:19:32.972Z,1.00
2018-02-22T08:22:02.793Z,1.30
2018-02-22T08:24:31.152Z,1.30
2018-02-22T08:26:59.471Z,1.50
2018-02-22T08:29:27.888Z,1.70
2018-02-22T08:31:56.292Z,2.10
2018-02-22T08:34:25.693Z,2.60
2018-02-22T08:36:54.753Z,1.70
2018-02-22T08:39:24.168Z,1.50
2018-02-22T08:41:52.560Z,1.50
2018-02-22T08:44:20.882Z,1.30
2018-02-22T08:46:49.578Z,1.40
2018-02-22T08:49:18.032Z,1.70
2018-02-22T08:51:46.471Z,1.40
2018-02-22T08:54:16.150Z,1.90
2018-02-22T08:56:44.607Z,1.90
2018-02-22T08:59:12.941Z,1.80
2018-02-22T09:01:42.681Z,1.70
2018-02-22T09:04:11.201Z,1.70
2018-02-22T09:06:39.784Z,2.00
2018-02-22T09:09:08.854Z,1.80
2018-02-22T09:11:37.617Z,1.70
2018-02-22T09:14:07.031Z,1.80
2018-02-22T09:16:35.732Z,1.80
2018-02-22T09:19:04.365Z,1.80
2018-02-22T09:21:33.002Z,1.40
2018-02-22T09:24:03.064Z,2.60
2018-02-22T09:26:31.642Z,2.40
2018-02-22T09:29:00.614Z,2.20
2018-02-22T09:31:29.632Z,2.20
2018-02-22T09:33:58.170Z,2.10
2018-02-22T09:36:26.837Z,2.20
2018-02-22T09:38:56.503Z,2.30
2018-02-22T09:41:25.453Z,2.40
2018-02-22T09:43:54.017Z,2.30
2018-02-22T09:46:22.783Z,2.30
2018-02-22T09:48:51.186Z,2.20
2018-02-22T09:51:19.735Z,2.40
2018-02-22T09:53:48.361Z,2.50
2018-02-22T09:56:17.958Z,2.50
2018-02-22T09:58:46.699Z,2.50
2018-02-22T10:01:16.034Z,2.20
2018-02-22T10:03:44.285Z,2.20
2018-02-22T10:06:12.664Z,1.10
2018-02-22T10:08:41.116Z,2.40
2018-02-22T10:11:09.789Z,2.50
2018-02-22T10:13:38.153Z,2.60
2018-02-22T10:16:06.532Z,2.60
2018-02-22T10:18:34.864Z,2.70
2018-02-22T10:21:03.267Z,2.80
2018-02-22T10:23:31.773Z,2.80
2018-02-22T10:26:00.094Z,2.80
2018-02-22T10:28:28.433Z,2.80
2018-02-22T10:30:57.527Z,2.90
2018-02-22T10:33:26.845Z,3.10
2018-02-22T10:35:55.246Z,3.10
2018-02-22T10:38:23.595Z,3.10
2018-02-22T10:40:52.896Z,3.10
2018-02-22T10:43:21.241Z,3.00
2018-02-22T10:45:50.379Z,3.00
2018-02-22T10:48:18.644Z,3.00
2018-02-22T10:50:47.001Z,3.10
2018-02-22T10:53:15.618Z,3.20
2018-02-22T10:55:43.951Z,3.30
2018-02-22T10:58:12.233Z,3.30
2018-02-22T11:00:46.017Z,3.40
2018-02-22T11:03:14.419Z,3.50
2018-02-22T11:05:42.736Z,3.50
2018-02-22T11:08:11.781Z,3.70
2018-02-22T11:10:40.044Z,3.70
2018-02-22T11:13:08.332Z,3.50
2018-02-22T11:15:36.629Z,3.70
2018-02-22T11:18:04.906Z,3.80
2018-02-22T11:20:33.201Z,3.70
2018-02-22T11:23:02.367Z,3.80
2018-02-22T11:25:30.737Z,3.80
2018-02-22T11:27:59.049Z,3.80
2018-02-22T11:30:27.441Z,3.90
2018-02-22T11:32:56.466Z,4.50
2018-02-22T11:35:24.866Z,4.50
2018-02-22T11:37:53.634Z,4.20
2018-02-22T11:40:28.989Z,4.10
2018-02-22T11:42:57.686Z,3.40
2018-02-22T11:45:26.004Z,3.60
2018-02-22T11:47:55.389Z,4.00
2018-02-22T11:50:23.727Z,4.00
2018-02-22T11:52:51.946Z,4.20
2018-02-22T11:55:20.402Z,4.10
2018-02-22T11:57:48.678Z,4.20
2018-02-22T12:00:16.933Z,4.30
2018-02-22T12:02:45.400Z,4.00
2018-02-22T12:05:13.763Z,3.60
2018-02-22T12:07:42.160Z,4.00
2018-02-22T12:10:10.597Z,4.20
2018-02-22T12:12:39.705Z,4.40
2018-02-22T12:15:08.826Z,4.40
2018-02-22T12:17:37.187Z,4.30
2018-02-22T12:20:05.564Z,4.10
2018-02-22T12:22:33.842Z,4.20
2018-02-22T12:25:02.949Z,4.20
2018-02-22T12:27:31.240Z,4.20
2018-02-22T12:29:59.525Z,4.40
2018-02-22T12:32:27.827Z,4.70
2018-02-22T12:34:56.060Z,4.80
2018-02-22T12:37:24.316Z,4.80
2018-02-22T12:39:52.586Z,4.40
2018-02-22T12:42:20.992Z,4.60
2018-02-22T12:44:49.333Z,4.70
2018-02-22T12:47:18.419Z,4.80
2018-02-22T12:49:46.820Z,4.70
2018-02-22T12:52:15.156Z,4.70
2018-02-22T12:54:43.510Z,4.80
2018-02-22T12:57:13.336Z,4.60
2018-02-22T12:59:41.597Z,5.00
2018-02-22T13:02:10.740Z,4.90
2018-02-22T13:04:39.018Z,5.00
2018-02-22T13:07:08.049Z,4.60
2018-02-22T13:09:36.306Z,4.60
2018-02-22T13:12:04.679Z,5.10
2018-02-22T13:14:33.664Z,5.20
2018-02-22T13:17:02.665Z,5.40
2018-02-22T13:19:31.699Z,5.10
2018-02-22T13:21:59.946Z,5.10
2018-02-22T13:24:28.361Z,5.40
2018-02-22T13:26:56.674Z,5.50
2018-02-22T13:29:24.948Z,5.40
2018-02-22T13:31:53.550Z,5.00
2018-02-22T13:34:35.745Z,5.10
2018-02-22T13:37:22.529Z,5.10
2018-02-22T13:39:51.754Z,5.30
2018-02-22T13:42:20.822Z,5.60
2018-02-22T13:45:07.072Z,5.50
2018-02-22T13:47:35.443Z,5.60
2018-02-22T13:50:21.598Z,5.30
2018-02-22T13:52:50.013Z,5.80
2018-02-22T13:55:18.336Z,6.20
2018-02-22T13:57:46.623Z,6.00
2018-02-22T14:00:32.835Z,6.30
2018-02-22T14:03:01.886Z,6.00
2018-02-22T14:05:30.297Z,6.00
2018-02-22T14:07:58.726Z,6.20
2018-02-22T14:10:27.037Z,6.30
2018-02-22T14:12:55.350Z,6.30
2018-02-22T14:15:23.835Z,6.40
2018-02-22T14:17:52.262Z,6.20
2018-02-22T14:20:20.568Z,6.20
2018-02-22T14:22:49.121Z,6.40
2018-02-22T14:25:17.428Z,6.60
2018-02-22T14:27:45.815Z,6.60
2018-02-22T14:30:14.304Z,6.50
2018-02-22T14:32:43.419Z,6.70
2018-02-22T14:35:11.763Z,6.70
2018-02-22T14:37:40.121Z,6.60
2018-02-22T14:40:08.438Z,6.60
2018-02-22T14:42:36.720Z,6.60
2018-02-22T14:45:05.074Z,6.60
2018-02-22T14:47:34.293Z,6.80
2018-02-22T14:50:02.577Z,6.80
2018-02-22T14:52:31.350Z,6.80
2018-02-22T14:55:00.395Z,6.80
2018-02-22T14:57:28.713Z,6.80
2018-02-22T14:59:57.160Z,6.70
2018-02-22T15:02:26.563Z,6.70
2018-02-22T15:04:54.986Z,6.40
2018-02-22T15:07:24.285Z,6.50
2018-02-22T15:09:52.571Z,6.50
2018-02-22T15:12:21.636Z,6.30
2018-02-22T15:14:49.931Z,6.30
2018-02-22T15:17:18.295Z,6.30
2018-02-22T15:19:47.390Z,6.30
2018-02-22T15:22:15.695Z,6.30
2018-02-22T15:24:43.943Z,6.30
2018-02-22T15:27:12.223Z,6.20
2018-02-22T15:29:41.391Z,6.40
2018-02-22T15:32:09.684Z,6.40
2018-02-22T15:34:38.027Z,6.50
2018-02-22T15:37:06.471Z,6.40
2018-02-22T15:39:34.717Z,6.20
2018-02-22T15:42:03.735Z,6.00
2018-02-22T15:44:32.036Z,6.00
2018-02-22T15:47:00.311Z,6.00
2018-02-22T15:49:28.608Z,5.90
2018-02-22T15:51:56.900Z,5.80
2018-02-22T15:54:25.149Z,5.80
2018-02-22T15:56:53.408Z,5.60
2018-02-22T15:59:21.665Z,5.70
2018-02-22T16:01:50.022Z,5.70
2018-02-22T16:04:19.057Z,5.60
2018-02-22T16:06:47.317Z,5.60
2018-02-22T16:09:15.625Z,5.60
2018-02-22T16:11:43.905Z,5.50
2018-02-22T16:14:12.203Z,5.50
2018-02-22T16:16:41.539Z,5.40
2018-02-22T16:19:09.819Z,5.20
2018-02-22T16:21:38.116Z,5.30
2018-02-22T16:24:06.495Z,5.40
2018-02-22T16:26:34.871Z,5.40
2018-02-22T16:29:03.174Z,5.30
2018-02-22T16:31:31.446Z,5.30
2018-02-22T16:34:06.472Z,5.20
2018-02-22T16:36:34.787Z,5.20
2018-02-22T16:39:03.030Z,4.90
2018-02-22T16:41:44.625Z,5.00
2018-02-22T16:44:13.068Z,4.90
2018-02-22T16:46:41.312Z,4.80
2018-02-22T16:49:10.429Z,4.70
2018-02-22T16:51:38.895Z,4.60
2018-02-22T16:54:07.921Z,4.60
2018-02-22T16:56:36.185Z,4.60
2018-02-22T16:59:04.469Z,4.50
2018-02-22T17:01:32.737Z,4.40
2018-02-22T17:04:01.014Z,4.30
2018-02-22T17:06:29.312Z,4.40
2018-02-22T17:09:12.220Z,4.50
2018-02-22T17:11:40.610Z,4.40
2018-02-22T17:14:08.887Z,4.30
2018-02-22T17:16:37.169Z,4.30
2018-02-22T17:19:05.447Z,4.30
2018-02-22T17:21:37.080Z,4.40
2018-02-22T17:24:07.141Z,4.10
2018-02-22T17:26:41.042Z,4.10
2018-02-22T17:29:14.836Z,4.20
2018-02-22T17:32:12.467Z,4.20
2018-02-22T17:34:45.497Z,3.80
2018-02-22T17:37:20.142Z,3.90
2018-02-22T17:39:49.614Z,3.90
2018-02-22T17:42:17.917Z,3.80
2018-02-22T17:44:46.217Z,3.70
2018-02-22T17:47:14.520Z,3.90
2018-02-22T17:49:42.811Z,3.80
2018-02-22T17:52:11.167Z,3.80
2018-02-22T17:54:39.457Z,3.40
2018-02-22T17:57:07.808Z,3.50
2018-02-22T17:59:36.522Z,3.60
2018-02-22T18:02:05.722Z,3.60
2018-02-22T18:04:34.319Z,3.60
2018-02-22T18:07:02.697Z,3.70
2018-02-22T18:09:30.950Z,3.70
2018-02-22T18:12:00.027Z,3.60
2018-02-22T18:14:28.470Z,3.60
2018-02-22T18:16:58.410Z,3.60
2018-02-22T18:19:27.532Z,3.40
2018-02-22T18:21:56.406Z,3.40
2018-02-22T18:24:25.592Z,3.60
2018-02-22T18:26:54.803Z,3.60
2018-02-22T18:29:23.119Z,3.60
2018-02-22T18:31:51.388Z,3.50
2018-02-22T18:34:19.644Z,3.50
2018-02-22T18:36:47.966Z,3.40
2018-02-22T18:39:16.972Z,3.30
2018-02-22T18:41:51.497Z,3.00
2018-02-22T18:44:26.261Z,3.10
2018-02-22T18:46:55.767Z,3.10
2018-02-22T18:49:24.689Z,3.20
2018-02-22T18:54:54.505Z,4.80
2018-02-22T18:57:22.980Z,2.90
2018-02-22T18:59:54.319Z,3.00
2018-02-22T19:02:22.854Z,3.00
2018-02-22T19:07:48.991Z,2.90
2018-02-22T19:13:21.097Z,2.80
2018-02-22T19:15:50.170Z,2.90
2018-02-22T19:18:18.484Z,2.90
2018-02-22T19:20:46.771Z,3.00
2018-02-22T19:23:15.899Z,2.80
2018-02-22T19:25:44.223Z,2.60
2018-02-22T19:28:12.709Z,2.60
2018-02-22T19:30:41.776Z,2.50
2018-02-22T19:33:10.105Z,2.50
2018-02-22T19:35:38.467Z,2.60
2018-02-22T19:38:06.756Z,2.40
2018-02-22T19:40:35.018Z,2.40
2018-02-22T19:43:03.361Z,2.50
2018-02-22T19:45:31.626Z,2.50
2018-02-22T19:48:00.384Z,2.50
2018-02-22T19:50:28.660Z,2.50
2018-02-22T19:52:57.011Z,2.30
2018-02-22T19:55:25.504Z,2.30
2018-02-22T19:57:55.114Z,2.30
2018-02-22T20:00:23.468Z,2.30
2018-02-22T20:02:51.923Z,2.20
2018-02-22T20:05:20.246Z,2.20
2018-02-22T20:07:48.502Z,2.20
2018-02-22T20:10:17.596Z,2.40
2018-02-22T20:12:45.967Z,2.40
2018-02-22T20:15:15.019Z,2.30
2018-02-22T20:17:43.324Z,2.20
2018-02-22T20:20:12.505Z,2.40
2018-02-22T20:22:41.606Z,2.30
2018-02-22T20:25:09.966Z,2.30
2018-02-22T20:27:38.269Z,2.20
2018-02-22T20:30:07.355Z,2.30
2018-02-22T20:32:35.595Z,2.30
2018-02-22T20:35:03.926Z,2.20
2018-02-22T20:37:33.008Z,2.10
2018-02-22T20:40:02.132Z,2.10
2018-02-22T20:42:36.494Z,2.10
2018-02-22T20:45:04.948Z,2.20
2018-02-22T20:47:33.344Z,2.00
2018-02-22T20:50:02.456Z,2.10
2018-02-22T20:52:36.589Z,2.10
2018-02-22T20:55:08.701Z,2.00
2018-02-22T20:57:37.033Z,2.00
2018-02-22T21:00:05.365Z,1.90
2018-02-22T21:02:33.597Z,2.00
2018-02-22T21:05:02.674Z,1.90
2018-02-22T21:07:30.954Z,1.90
2018-02-22T21:09:59.234Z,2.00
2018-02-22T21:12:27.586Z,2.00
2018-02-22T21:14:55.850Z,2.00
2018-02-22T21:17:24.134Z,2.00
2018-02-22T21:19:52.517Z,2.00
2018-02-22T21:22:20.777Z,1.90
2018-02-22T21:24:49.061Z,1.80
2018-02-22T21:27:17.437Z,1.70
2018-02-22T21:29:46.510Z,1.60
2018-02-22T21:32:14.897Z,1.60
2018-02-22T21:34:43.255Z,1.50
2018-02-22T21:37:11.554Z,1.50
2018-02-22T21:39:39.830Z,1.40
2018-02-22T21:42:08.116Z,1.50
2018-02-22T21:44:36.393Z,1.50
2018-02-22T21:47:04.659Z,1.30
2018-02-22T21:49:33.083Z,1.50
2018-02-22T21:52:01.422Z,1.40
2018-02-22T21:54:29.667Z,1.40
2018-02-22T21:56:57.998Z,1.30
2018-02-22T21:59:26.369Z,1.20
2018-02-22T22:01:54.602Z,1.40
2018-02-22T22:04:22.938Z,1.20
2018-02-22T22:06:51.214Z,1.30
2018-02-22T22:09:19.462Z,1.40
2018-02-22T22:11:47.906Z,1.30
2018-02-22T22:14:16.262Z,1.30
2018-02-22T22:16:45.262Z,1.20
2018-02-22T22:19:13.722Z,1.10
2018-02-22T22:21:41.989Z,1.20
2018-02-22T22:24:10.262Z,1.30
2018-02-22T22:26:39.329Z,1.20
2018-02-22T22:29:07.701Z,1.20
2018-02-22T22:31:36.016Z,1.30
2018-02-22T22:34:04.282Z,1.00
2018-02-22T22:36:32.511Z,1.10
2018-02-22T22:39:00.776Z,1.30
2018-02-22T22:41:29.131Z,1.20
2018-02-22T22:43:58.192Z,1.20
2018-02-22T22:46:26.452Z,1.20
2018-02-22T22:48:54.851Z,1.10
2018-02-22T22:51:23.164Z,1.20
2018-02-22T22:53:52.183Z,1.20
2018-02-22T22:56:20.506Z,1.20
2018-02-22T22:58:48.781Z,0.80
2018-02-22T23:01:17.885Z,0.80
2018-02-22T23:03:47.072Z,1.10
2018-02-22T23:06:15.385Z,1.10
2018-02-22T23:08:45.127Z,1.30
2018-02-22T23:11:13.475Z,1.20
2018-02-22T23:13:42.004Z,1.10
2018-02-22T23:16:10.298Z,1.10
2018-02-22T23:18:38.578Z,0.80
2018-02-22T23:21:07.599Z,1.00
2018-02-22T23:23:36.703Z,1.00
2018-02-22T23:26:05.034Z,1.00
2018-02-22T23:28:33.349Z,1.10
2018-02-22T23:31:01.603Z,1.10
2018-02-22T23:33:29.944Z,1.20
2018-02-22T23:35:58.217Z,1.10
2018-02-22T23:38:26.450Z,1.00
2018-02-22T23:41:04.634Z,1.00
2018-02-22T23:43:32.932Z,1.20
2018-02-22T23:46:01.180Z,1.00
2018-02-22T23:48:30.521Z,1.20
2018-02-22T23:50:58.767Z,1.10
2018-02-22T23:53:27.058Z,1.20
2018-02-22T23:55:55.371Z,1.10
2018-02-22T23:58:23.654Z,1.00
